createdAt,value
2023-05-19T00:02:05.998Z,3.08
2023-05-19T00:04:33.618Z,2.70
2023-05-19T00:07:01.324Z,2.70
2023-05-19T00:09:28.436Z,2.50
2023-05-19T00:11:56.646Z,2.50
2023-05-19T00:14:23.500Z,3.30
2023-05-19T00:16:50.465Z,2.75
2023-05-19T00:19:17.691Z,2.78
2023-05-19T00:21:44.439Z,2.97
2023-05-19T00:24:11.198Z,2.90
2023-05-19T00:26:37.961Z,3.38
2023-05-19T00:29:04.766Z,2.90
2023-05-19T00:31:32.919Z,3.00
2023-05-19T00:33:59.852Z,3.10
2023-05-19T00:36:26.598Z,2.85
2023-05-19T00:38:53.323Z,3.47
2023-05-19T00:41:21.011Z,2.92
2023-05-19T00:43:47.731Z,2.95
2023-05-19T00:46:14.735Z,2.75
2023-05-19T00:48:44.590Z,2.85
2023-05-19T00:51:14.653Z,2.80
2023-05-19T00:53:41.549Z,3.60
2023-05-19T00:56:08.312Z,2.97
2023-05-19T00:58:36.098Z,2.97
2023-05-19T01:01:04.438Z,3.30
2023-05-19T01:03:32.567Z,3.25
2023-05-19T01:06:01.706Z,3.30
2023-05-19T01:08:29.335Z,2.97
2023-05-19T01:10:56.031Z,2.78
2023-05-19T01:13:22.976Z,3.20
2023-05-19T01:16:02.203Z,3.22
2023-05-19T01:18:41.731Z,3.22
2023-05-19T01:21:19.193Z,3.17
2023-05-19T01:24:06.641Z,2.90
2023-05-19T01:27:12.123Z,3.00
2023-05-19T01:30:23.273Z,3.08
2023-05-19T01:32:53.334Z,3.50
2023-05-19T01:35:24.849Z,3.30
2023-05-19T01:37:54.290Z,3.00
2023-05-19T01:40:22.825Z,3.17
2023-05-19T01:42:57.440Z,2.78
2023-05-19T01:45:25.733Z,3.00
2023-05-19T01:47:55.986Z,2.90
2023-05-19T01:50:23.145Z,3.03
2023-05-19T01:52:50.103Z,3.10
2023-05-19T01:55:16.909Z,3.20
2023-05-19T01:58:02.065Z,3.50
2023-05-19T02:00:51.336Z,2.75
2023-05-19T02:03:38.447Z,3.38
2023-05-19T02:06:31.266Z,3.17
2023-05-19T02:09:01.119Z,2.90
2023-05-19T02:11:39.820Z,3.10
2023-05-19T02:14:17.464Z,3.25
2023-05-19T02:16:48.667Z,3.20
2023-05-19T02:19:32.007Z,3.45
2023-05-19T02:21:58.802Z,2.95
2023-05-19T02:24:25.537Z,3.28
2023-05-19T02:26:53.722Z,3.22
2023-05-19T02:29:21.102Z,3.25
2023-05-19T02:31:48.246Z,3.00
2023-05-19T02:34:15.032Z,3.00
2023-05-19T02:36:45.368Z,3.10
2023-05-19T02:39:12.899Z,3.22
2023-05-19T02:41:39.539Z,3.53
2023-05-19T02:44:06.446Z,3.30
2023-05-19T02:46:33.466Z,3.20
2023-05-19T02:49:00.287Z,3.28
2023-05-19T02:51:26.931Z,3.38
2023-05-19T02:53:53.601Z,3.08
2023-05-19T02:56:21.300Z,3.80
2023-05-19T02:58:47.964Z,3.67
2023-05-19T03:01:16.417Z,3.70
2023-05-19T03:03:43.121Z,3.90
2023-05-19T03:06:09.940Z,3.55
2023-05-19T03:08:36.818Z,3.60
2023-05-19T03:11:03.801Z,3.80
2023-05-19T03:13:30.576Z,3.72
2023-05-19T03:15:59.204Z,2.92
2023-05-19T03:18:26.662Z,3.38
2023-05-19T03:20:54.103Z,3.83
2023-05-19T03:23:22.250Z,3.88
2023-05-19T03:25:49.020Z,3.60
2023-05-19T03:28:15.854Z,4.13
2023-05-19T03:30:42.543Z,3.55
2023-05-19T03:33:09.363Z,4.13
2023-05-19T03:35:36.144Z,3.95
2023-05-19T03:38:02.795Z,4.20
2023-05-19T03:40:29.549Z,3.70
2023-05-19T03:42:56.757Z,3.78
2023-05-19T03:45:23.454Z,3.70
2023-05-19T03:47:50.197Z,3.65
2023-05-19T03:50:16.887Z,4.30
2023-05-19T03:52:46.420Z,3.65
2023-05-19T03:55:14.729Z,4.00
2023-05-19T03:57:41.571Z,4.22
2023-05-19T04:00:11.223Z,4.00
2023-05-19T04:02:38.147Z,4.13
2023-05-19T04:05:05.556Z,4.13
2023-05-19T04:07:32.173Z,4.50
2023-05-19T04:09:58.824Z,4.30
2023-05-19T04:12:25.520Z,4.53
2023-05-19T04:14:52.170Z,3.85
2023-05-19T04:17:18.993Z,3.80
2023-05-19T04:19:45.759Z,4.50
2023-05-19T04:22:12.479Z,4.47
2023-05-19T04:24:39.121Z,4.50
2023-05-19T04:27:11.882Z,4.38
2023-05-19T04:29:39.975Z,4.85
2023-05-19T04:32:07.750Z,5.28
2023-05-19T04:34:35.280Z,4.43
2023-05-19T04:37:02.654Z,4.45
2023-05-19T04:39:29.284Z,4.45
2023-05-19T04:41:56.601Z,5.18
2023-05-19T04:44:23.385Z,4.60
2023-05-19T04:46:54.234Z,4.82
2023-05-19T04:49:23.105Z,4.30
2023-05-19T04:51:52.307Z,4.82
2023-05-19T04:54:21.453Z,4.60
2023-05-19T04:56:48.100Z,4.20
2023-05-19T04:59:14.784Z,5.00
2023-05-19T05:01:43.029Z,4.85
2023-05-19T05:04:09.899Z,5.18
2023-05-19T05:06:38.325Z,4.57
2023-05-19T05:09:05.028Z,5.03
2023-05-19T05:11:31.945Z,5.50
2023-05-19T05:13:59.062Z,5.07
2023-05-19T05:16:26.609Z,5.20
2023-05-19T05:18:53.681Z,5.07
2023-05-19T05:21:20.719Z,5.28
2023-05-19T05:23:47.633Z,5.15
2023-05-19T05:26:24.966Z,4.97
2023-05-19T05:28:51.748Z,5.45
2023-05-19T05:31:24.509Z,5.32
2023-05-19T05:33:51.258Z,5.20
2023-05-19T05:36:17.955Z,4.80
2023-05-19T05:38:44.620Z,5.15
2023-05-19T05:41:11.378Z,5.88
2023-05-19T05:43:38.058Z,5.00
2023-05-19T05:46:04.862Z,4.82
2023-05-19T05:48:31.948Z,4.95
2023-05-19T05:50:59.938Z,4.72
2023-05-19T05:53:30.800Z,4.75
2023-05-19T05:55:57.937Z,4.78
2023-05-19T05:58:24.618Z,4.43
2023-05-19T06:00:53.417Z,5.00
2023-05-19T06:03:24.302Z,4.78
2023-05-19T06:05:51.519Z,4.80
2023-05-19T06:08:18.313Z,4.80
2023-05-19T06:10:47.259Z,4.43
2023-05-19T06:13:16.248Z,4.80
2023-05-19T06:15:42.969Z,4.60
2023-05-19T06:18:09.739Z,4.38
2023-05-19T06:20:36.458Z,4.22
2023-05-19T06:23:03.165Z,4.55
2023-05-19T06:25:30.506Z,4.43
2023-05-19T06:27:57.268Z,4.28
2023-05-19T06:30:23.986Z,4.97
2023-05-19T06:32:50.875Z,4.40
2023-05-19T06:35:17.581Z,4.75
2023-05-19T06:37:44.286Z,4.65
2023-05-19T06:40:11.546Z,4.50
2023-05-19T06:42:38.263Z,4.18
2023-05-19T06:45:05.692Z,3.83
2023-05-19T06:47:32.420Z,4.32
2023-05-19T06:49:59.101Z,4.68
2023-05-19T06:52:25.764Z,4.32
2023-05-19T06:54:52.463Z,4.40
2023-05-19T06:57:19.111Z,4.88
2023-05-19T06:59:46.805Z,4.00
2023-05-19T07:02:13.698Z,4.13
2023-05-19T07:04:40.949Z,4.40
2023-05-19T07:07:07.740Z,4.10
2023-05-19T07:09:34.723Z,3.83
2023-05-19T07:12:01.680Z,4.13
2023-05-19T07:14:28.408Z,4.82
2023-05-19T07:16:55.398Z,4.72
2023-05-19T07:19:22.586Z,4.68
2023-05-19T07:21:49.660Z,3.88
2023-05-19T07:24:16.332Z,4.65
2023-05-19T07:26:43.138Z,4.18
2023-05-19T07:29:09.791Z,4.40
2023-05-19T07:31:36.490Z,3.83
2023-05-19T07:34:03.545Z,4.35
2023-05-19T07:36:31.358Z,4.22
2023-05-19T07:38:58.167Z,4.47
2023-05-19T07:41:24.850Z,3.85
2023-05-19T07:43:51.598Z,4.78
2023-05-19T07:46:18.320Z,4.25
2023-05-19T07:48:45.118Z,4.30
2023-05-19T07:51:12.775Z,4.18
2023-05-19T07:53:40.019Z,5.65
2023-05-19T07:56:07.080Z,4.45
2023-05-19T07:58:34.215Z,4.28
2023-05-19T08:01:04.844Z,4.07
2023-05-19T08:03:32.028Z,4.20
2023-05-19T08:05:59.248Z,3.88
2023-05-19T08:08:26.832Z,3.85
2023-05-19T08:10:53.892Z,3.53
2023-05-19T08:13:20.720Z,3.97
2023-05-19T08:15:47.944Z,3.60
2023-05-19T08:18:15.113Z,3.20
2023-05-19T08:20:41.998Z,3.30
2023-05-19T08:23:08.799Z,3.25
2023-05-19T08:25:35.754Z,3.25
2023-05-19T08:28:02.595Z,2.95
2023-05-19T08:30:29.474Z,2.97
2023-05-19T08:32:56.409Z,3.03
2023-05-19T08:35:23.516Z,2.97
2023-05-19T08:37:50.470Z,2.78
2023-05-19T08:40:18.551Z,2.80
2023-05-19T08:42:46.319Z,2.53
2023-05-19T08:45:13.897Z,3.10
2023-05-19T08:47:46.388Z,3.40
2023-05-19T08:50:21.688Z,2.67
2023-05-19T08:52:57.826Z,2.28
2023-05-19T08:55:39.742Z,2.30
2023-05-19T08:58:07.081Z,2.10
2023-05-19T09:00:34.445Z,2.72
2023-05-19T09:03:17.488Z,2.00
2023-05-19T09:05:46.546Z,2.30
2023-05-19T09:08:14.002Z,2.13
2023-05-19T09:10:41.176Z,2.08
2023-05-19T09:13:08.935Z,1.80
2023-05-19T09:15:38.984Z,1.63
2023-05-19T09:18:11.165Z,1.77
2023-05-19T09:20:46.176Z,2.30
2023-05-19T09:23:17.422Z,1.83
2023-05-19T09:25:48.545Z,1.80
2023-05-19T09:28:15.998Z,1.85
2023-05-19T09:30:45.818Z,1.98
2023-05-19T09:33:19.616Z,2.13
2023-05-19T09:35:49.242Z,1.73
2023-05-19T09:38:22.503Z,1.92
2023-05-19T09:40:50.085Z,1.75
2023-05-19T09:43:17.044Z,1.75
2023-05-19T09:45:44.113Z,1.60
2023-05-19T09:48:11.328Z,1.92
2023-05-19T09:50:38.375Z,1.60
2023-05-19T09:53:05.417Z,1.98
2023-05-19T09:55:36.248Z,1.90
2023-05-19T09:58:05.229Z,1.70
2023-05-19T10:00:33.247Z,1.65
2023-05-19T10:03:02.150Z,1.80
2023-05-19T10:05:29.987Z,2.30
2023-05-19T10:07:57.489Z,2.20
2023-05-19T10:10:24.914Z,2.10
2023-05-19T10:12:52.231Z,1.90
2023-05-19T10:15:22.170Z,2.03
2023-05-19T10:17:50.619Z,2.25
2023-05-19T10:20:18.122Z,1.67
2023-05-19T10:22:46.392Z,2.05
2023-05-19T10:25:15.382Z,1.65
2023-05-19T10:27:55.809Z,2.10
2023-05-19T10:30:36.012Z,2.03
2023-05-19T10:33:07.775Z,1.80
2023-05-19T10:35:53.732Z,1.65
2023-05-19T10:38:48.620Z,2.05
2023-05-19T10:44:23.898Z,2.10
2023-05-19T10:46:54.099Z,2.28
2023-05-19T10:49:22.982Z,1.80
2023-05-19T10:51:51.767Z,2.20
2023-05-19T10:54:39.302Z,1.60
2023-05-19T10:57:07.079Z,2.17
2023-05-19T10:59:37.288Z,1.70
2023-05-19T11:02:05.424Z,2.00
2023-05-19T11:04:51.766Z,2.13
2023-05-19T11:07:21.703Z,1.90
2023-05-19T11:09:57.950Z,1.30
2023-05-19T11:12:25.337Z,2.00
2023-05-19T11:14:56.044Z,1.90
2023-05-19T11:17:25.735Z,1.80
2023-05-19T11:19:54.844Z,1.60
2023-05-19T11:22:27.044Z,1.40
2023-05-19T11:24:57.952Z,2.00
2023-05-19T11:27:29.085Z,2.05
2023-05-19T11:29:59.538Z,2.10
2023-05-19T11:32:33.467Z,1.98
2023-05-19T11:35:01.171Z,1.70
2023-05-19T11:37:32.151Z,2.00
2023-05-19T11:40:02.247Z,2.17
2023-05-19T11:42:29.193Z,1.92
2023-05-19T11:44:56.566Z,2.08
2023-05-19T11:47:23.733Z,1.75
2023-05-19T11:49:55.075Z,2.15
2023-05-19T11:52:23.530Z,1.77
2023-05-19T11:54:50.980Z,1.60
2023-05-19T11:57:18.754Z,1.95
2023-05-19T11:59:45.984Z,1.75
2023-05-19T12:02:21.375Z,2.33
2023-05-19T12:04:52.220Z,1.90
2023-05-19T12:07:22.816Z,2.17
2023-05-19T12:09:50.982Z,1.92
2023-05-19T12:12:20.069Z,1.90
2023-05-19T12:14:47.859Z,1.90
2023-05-19T12:17:17.646Z,2.08
2023-05-19T12:19:46.751Z,1.92
2023-05-19T12:22:15.120Z,1.80
2023-05-19T12:24:44.024Z,2.22
2023-05-19T12:27:14.076Z,2.00
2023-05-19T12:29:41.278Z,1.85
2023-05-19T12:32:09.198Z,1.83
2023-05-19T12:34:39.465Z,1.80
2023-05-19T12:37:06.733Z,2.15
2023-05-19T12:39:33.972Z,1.98
2023-05-19T12:42:11.476Z,1.83
2023-05-19T12:44:42.803Z,1.60
2023-05-19T12:47:09.784Z,1.58
2023-05-19T12:49:36.700Z,1.80
2023-05-19T12:52:07.194Z,1.73
2023-05-19T12:54:36.309Z,1.40
2023-05-19T12:57:05.732Z,1.77
2023-05-19T12:59:38.771Z,2.20
2023-05-19T13:02:06.671Z,1.80
2023-05-19T13:04:33.736Z,1.92
2023-05-19T13:07:00.565Z,1.90
2023-05-19T13:09:27.960Z,1.75
2023-05-19T13:11:54.970Z,1.73
2023-05-19T13:14:22.234Z,1.92
2023-05-19T13:16:49.316Z,1.88
2023-05-19T13:21:52.690Z,2.33
2023-05-19T13:24:19.542Z,2.30
2023-05-19T13:26:46.576Z,2.00
2023-05-19T13:29:13.550Z,2.00
2023-05-19T13:31:40.729Z,2.08
2023-05-19T13:34:08.124Z,1.70
2023-05-19T13:36:35.149Z,1.73
2023-05-19T13:39:02.140Z,1.60
2023-05-19T13:41:29.591Z,1.70
2023-05-19T13:43:59.748Z,1.67
2023-05-19T13:49:14.074Z,1.80
2023-05-19T13:51:32.996Z,2.63
2023-05-19T13:51:43.664Z,2.17
2023-05-19T13:54:11.441Z,1.98
2023-05-19T13:56:38.894Z,1.80
2023-05-19T13:59:05.833Z,2.15
2023-05-19T14:01:33.036Z,2.00
2023-05-19T14:04:01.034Z,2.10
2023-05-19T14:06:28.312Z,1.63
2023-05-19T14:08:55.272Z,2.13
2023-05-19T14:11:22.741Z,1.77
2023-05-19T14:13:52.552Z,2.03
2023-05-19T14:16:21.911Z,1.90
2023-05-19T14:18:49.479Z,1.70
2023-05-19T14:21:16.435Z,1.83
2023-05-19T14:23:43.284Z,2.20
2023-05-19T14:26:10.215Z,1.67
2023-05-19T14:28:37.066Z,1.70
2023-05-19T14:31:04.211Z,1.90
2023-05-19T14:33:34.862Z,1.70
2023-05-19T14:36:02.413Z,1.88
2023-05-19T14:38:29.873Z,1.88
2023-05-19T14:40:56.934Z,1.80
2023-05-19T14:43:24.413Z,1.98
2023-05-19T14:45:51.197Z,2.00
2023-05-19T14:48:18.380Z,1.98
2023-05-19T14:50:48.061Z,1.92
2023-05-19T14:53:15.725Z,1.83
2023-05-19T14:55:43.212Z,1.85
2023-05-19T14:58:23.680Z,1.65
2023-05-19T15:03:23.310Z,2.00
2023-05-19T15:05:50.211Z,1.50
2023-05-19T15:08:17.149Z,1.90
2023-05-19T15:10:48.125Z,2.00
2023-05-19T15:13:14.928Z,2.03
2023-05-19T15:15:41.817Z,2.60
2023-05-19T15:18:08.899Z,1.83
2023-05-19T15:20:36.344Z,2.10
2023-05-19T15:23:03.325Z,1.83
2023-05-19T15:25:30.692Z,1.75
2023-05-19T15:27:57.941Z,1.73
2023-05-19T15:30:24.912Z,1.65
2023-05-19T15:32:51.878Z,1.75
2023-05-19T15:35:18.786Z,1.90
2023-05-19T15:37:45.725Z,2.05
2023-05-19T15:40:13.073Z,1.77
2023-05-19T15:42:40.111Z,1.50
2023-05-19T15:45:08.216Z,1.80
2023-05-19T15:47:35.175Z,1.70
2023-05-19T15:50:02.194Z,1.52
2023-05-19T15:52:29.461Z,1.90
2023-05-19T15:54:59.009Z,1.60
2023-05-19T15:57:26.019Z,2.00
2023-05-19T15:59:53.574Z,1.98
2023-05-19T16:02:21.393Z,1.83
2023-05-19T16:04:48.359Z,2.30
2023-05-19T16:07:16.970Z,1.90
2023-05-19T16:09:43.991Z,2.00
2023-05-19T16:12:10.930Z,1.80
2023-05-19T16:14:38.001Z,1.80
2023-05-19T16:17:10.981Z,2.30
2023-05-19T16:19:38.342Z,2.10
2023-05-19T16:22:05.472Z,1.70
2023-05-19T16:24:32.516Z,1.85
2023-05-19T16:26:59.467Z,1.58
2023-05-19T16:29:26.320Z,2.03
2023-05-19T16:31:53.364Z,2.00
2023-05-19T16:34:20.400Z,2.08
2023-05-19T16:36:47.359Z,1.63
2023-05-19T16:39:14.518Z,2.00
2023-05-19T16:41:41.441Z,2.00
2023-05-19T16:44:08.392Z,2.05
2023-05-19T16:46:35.459Z,2.03
2023-05-19T16:49:02.394Z,1.63
2023-05-19T16:51:29.322Z,1.98
2023-05-19T16:53:56.370Z,1.80
2023-05-19T16:56:23.315Z,1.83
2023-05-19T16:58:50.361Z,1.73
2023-05-19T17:01:17.492Z,1.95
2023-05-19T17:03:44.476Z,1.80
2023-05-19T17:06:11.414Z,2.00
2023-05-19T17:08:38.378Z,2.10
2023-05-19T17:11:06.541Z,1.88
2023-05-19T17:13:39.324Z,1.63
2023-05-19T17:16:06.563Z,1.90
2023-05-19T17:18:33.402Z,2.00
2023-05-19T17:21:03.810Z,2.10
2023-05-19T17:23:31.802Z,1.90
2023-05-19T17:25:58.847Z,1.95
2023-05-19T17:28:25.929Z,2.08
2023-05-19T17:30:53.644Z,1.88
2023-05-19T17:33:20.963Z,2.05
2023-05-19T17:35:47.839Z,1.70
2023-05-19T17:38:14.796Z,2.03
2023-05-19T17:40:42.143Z,1.80
2023-05-19T17:43:09.206Z,1.60
2023-05-19T17:45:36.174Z,1.58
2023-05-19T17:48:03.326Z,1.83
2023-05-19T17:50:30.258Z,1.83
2023-05-19T17:52:57.610Z,1.95
2023-05-19T17:55:29.791Z,1.92
2023-05-19T17:57:57.339Z,1.60
2023-05-19T18:00:25.217Z,1.90
2023-05-19T18:02:55.456Z,1.85
2023-05-19T18:05:22.755Z,1.77
2023-05-19T18:07:49.963Z,2.03
2023-05-19T18:10:17.177Z,2.10
2023-05-19T18:12:43.834Z,1.98
2023-05-19T18:15:11.415Z,1.90
2023-05-19T18:17:38.191Z,2.30
2023-05-19T18:20:05.373Z,1.95
2023-05-19T18:22:32.082Z,1.98
2023-05-19T18:24:58.746Z,2.00
2023-05-19T18:27:26.679Z,1.70
2023-05-19T18:29:53.329Z,1.75
2023-05-19T18:32:19.970Z,1.80
2023-05-19T18:34:46.718Z,2.30
2023-05-19T18:37:13.563Z,2.10
2023-05-19T18:39:40.757Z,1.88
2023-05-19T18:42:07.379Z,2.05
2023-05-19T18:44:33.992Z,1.77
2023-05-19T18:47:01.051Z,2.03
2023-05-19T18:49:27.696Z,2.03
2023-05-19T18:51:54.359Z,2.00
2023-05-19T18:54:21.900Z,1.92
2023-05-19T18:56:48.771Z,1.73
2023-05-19T18:59:15.490Z,2.25
2023-05-19T19:01:42.867Z,2.10
2023-05-19T19:04:09.800Z,2.00
2023-05-19T19:06:36.506Z,1.85
2023-05-19T19:09:03.467Z,2.00
2023-05-19T19:11:30.127Z,1.70
2023-05-19T19:13:56.827Z,1.90
2023-05-19T19:16:23.644Z,2.00
2023-05-19T19:18:50.402Z,1.70
2023-05-19T19:21:19.284Z,2.28
2023-05-19T19:23:46.049Z,1.85
2023-05-19T19:26:12.748Z,2.05
2023-05-19T19:28:39.452Z,1.98
2023-05-19T19:31:06.178Z,2.17
2023-05-19T19:33:33.027Z,1.80
2023-05-19T19:35:59.795Z,2.00
2023-05-19T19:38:26.481Z,2.13
2023-05-19T19:40:53.210Z,2.20
2023-05-19T19:43:19.937Z,1.80
2023-05-19T19:45:46.602Z,2.38
2023-05-19T19:48:13.613Z,1.90
2023-05-19T19:50:40.904Z,2.75
2023-05-19T19:53:08.937Z,2.42
2023-05-19T19:55:35.604Z,2.28
2023-05-19T19:58:02.350Z,2.08
2023-05-19T20:00:29.069Z,1.92
2023-05-19T20:03:04.897Z,1.90
2023-05-19T20:05:32.845Z,1.98
2023-05-19T20:07:59.570Z,2.50
2023-05-19T20:10:26.287Z,2.10
2023-05-19T20:12:53.150Z,2.20
2023-05-19T20:15:19.938Z,2.22
2023-05-19T20:17:46.608Z,1.77
2023-05-19T20:20:13.518Z,1.95
2023-05-19T20:22:40.241Z,1.95
2023-05-19T20:25:07.352Z,1.90
2023-05-19T20:27:34.212Z,2.05
2023-05-19T20:30:00.901Z,2.30
2023-05-19T20:32:27.612Z,2.17
2023-05-19T20:34:54.433Z,2.20
2023-05-19T20:37:22.176Z,2.40
2023-05-19T20:39:49.036Z,2.30
2023-05-19T20:42:15.751Z,2.20
2023-05-19T20:44:42.599Z,2.65
2023-05-19T20:47:09.513Z,3.17
2023-05-19T20:49:36.409Z,3.50
2023-05-19T20:52:03.379Z,2.80
2023-05-19T20:54:30.075Z,2.40
2023-05-19T20:56:56.766Z,2.20
2023-05-19T20:59:23.435Z,2.15
2023-05-19T21:01:50.089Z,2.22
2023-05-19T21:04:16.788Z,2.20
2023-05-19T21:06:43.481Z,2.60
2023-05-19T21:09:10.785Z,2.58
2023-05-19T21:11:37.460Z,2.58
2023-05-19T21:14:04.483Z,2.40
2023-05-19T21:16:31.892Z,2.83
2023-05-19T21:18:58.643Z,2.50
2023-05-19T21:21:26.134Z,3.08
2023-05-19T21:23:52.985Z,2.78
2023-05-19T21:26:19.591Z,3.03
2023-05-19T21:28:46.268Z,2.70
2023-05-19T21:31:12.987Z,2.72
2023-05-19T21:33:39.750Z,2.72
2023-05-19T21:36:06.772Z,3.38
2023-05-19T21:38:33.594Z,2.80
2023-05-19T21:41:00.432Z,2.80
2023-05-19T21:43:27.256Z,2.67
2023-05-19T21:45:53.911Z,2.65
2023-05-19T21:48:21.446Z,3.10
2023-05-19T21:50:53.930Z,3.53
2023-05-19T21:53:20.889Z,3.13
2023-05-19T21:55:47.546Z,3.25
2023-05-19T21:58:14.208Z,2.80
2023-05-19T22:00:40.945Z,3.00
2023-05-19T22:03:07.822Z,3.20
2023-05-19T22:05:35.430Z,2.90
2023-05-19T22:08:02.207Z,2.90
2023-05-19T22:10:28.896Z,2.83
2023-05-19T22:12:55.591Z,3.47
2023-05-19T22:15:22.415Z,3.10
2023-05-19T22:17:49.056Z,3.25
2023-05-19T22:20:16.416Z,3.00
2023-05-19T22:22:43.281Z,2.72
2023-05-19T22:25:10.014Z,2.58
2023-05-19T22:27:36.676Z,2.67
2023-05-19T22:30:03.592Z,2.80
2023-05-19T22:32:30.388Z,2.70
2023-05-19T22:34:57.047Z,3.10
2023-05-19T22:37:24.442Z,2.70
2023-05-19T22:39:51.532Z,2.75
2023-05-19T22:42:18.619Z,2.92
2023-05-19T22:44:45.866Z,2.90
2023-05-19T22:47:13.793Z,3.00
2023-05-19T22:49:41.436Z,3.50
2023-05-19T22:52:10.998Z,3.20
2023-05-19T22:54:38.053Z,2.70
2023-05-19T22:57:05.177Z,2.95
2023-05-19T22:59:31.978Z,2.78
2023-05-19T23:01:58.631Z,2.80
2023-05-19T23:04:25.323Z,2.70
2023-05-19T23:06:52.224Z,2.72
2023-05-19T23:09:19.062Z,3.28
2023-05-19T23:11:46.086Z,2.67
2023-05-19T23:14:12.832Z,2.50
2023-05-19T23:16:39.541Z,2.92
2023-05-19T23:19:06.318Z,2.70
2023-05-19T23:21:33.125Z,3.05
2023-05-19T23:24:00.000Z,2.70
2023-05-19T23:26:27.054Z,3.33
2023-05-19T23:28:53.736Z,2.95
2023-05-19T23:31:20.560Z,2.78
2023-05-19T23:33:47.245Z,2.63
2023-05-19T23:36:13.927Z,2.88
2023-05-19T23:38:40.625Z,3.22
2023-05-19T23:41:07.360Z,2.85
2023-05-19T23:43:34.050Z,3.25
2023-05-19T23:46:01.582Z,2.67
2023-05-19T23:48:29.246Z,3.30
2023-05-19T23:50:56.994Z,3.08
2023-05-19T23:53:24.083Z,2.75
2023-05-19T23:55:51.464Z,2.75
2023-05-19T23:58:18.647Z,3.17
